Time;durP1;ratioP1;P1;durP2;ratioP2;P2;SDS_P1;SDS_P2;PMS_P1;PMS_P2;Temp;Humidity;BMP_temperature;BMP_pressure;BME280_temperature;BME280_humidity;BME280_pressure;Samples;Min_cycle;Max_cycle;Signal;HPM_P1;HPM_P2
2023/07/08 00:00:23;;;;;;;8.52;3.80;;;20.90;99.90;;;;;;4994288;28;20030;-72
2023/07/08 00:02:49;;;;;;;11.23;4.63;;;21.10;99.90;;;;;;4991415;28;20045;-72
2023/07/08 00:05:18;;;;;;;7.05;3.38;;;21.10;99.90;;;;;;4993815;28;20031;-72
2023/07/08 00:07:45;;;;;;;6.30;3.25;;;21.10;99.90;;;;;;4993881;28;20077;-72
2023/07/08 00:10:12;;;;;;;6.82;3.72;;;21.10;99.90;;;;;;4994108;28;20038;-72
2023/07/08 00:12:37;;;;;;;6.22;3.70;;;20.90;99.90;;;;;;4976426;28;20030;-72
2023/07/08 00:15:04;;;;;;;6.03;3.45;;;20.80;99.90;;;;;;4974155;28;20030;-73
2023/07/08 00:17:30;;;;;;;6.18;3.45;;;20.70;99.90;;;;;;4974099;28;20046;-72
2023/07/08 00:19:56;;;;;;;6.38;3.65;;;20.60;99.90;;;;;;4973210;28;20034;-72
2023/07/08 00:22:24;;;;;;;8.63;4.00;;;20.70;99.90;;;;;;4973918;28;20106;-72
2023/07/08 00:24:50;;;;;;;6.93;3.80;;;20.50;99.90;;;;;;4973980;28;20185;-72
2023/07/08 00:27:16;;;;;;;7.32;4.10;;;20.60;99.90;;;;;;4974108;28;20031;-72
2023/07/08 00:29:42;;;;;;;6.47;3.45;;;20.70;99.90;;;;;;4992295;28;20049;-72
2023/07/08 00:32:13;;;;;;;6.93;3.55;;;20.70;99.90;;;;;;4993617;28;20380;-72
2023/07/08 00:34:39;;;;;;;7.55;3.92;;;20.80;99.90;;;;;;4993456;28;20524;-72
2023/07/08 00:37:08;;;;;;;8.85;3.97;;;20.70;99.90;;;;;;4993252;28;20198;-72
2023/07/08 00:39:34;;;;;;;6.78;3.13;;;20.90;99.90;;;;;;4993641;28;20404;-72
2023/07/08 00:42:01;;;;;;;7.45;4.03;;;20.90;99.90;;;;;;4993371;28;20026;-72
2023/07/08 00:44:27;;;;;;;10.65;4.15;;;20.70;99.90;;;;;;4992912;28;20042;-72
2023/07/08 00:47:07;;;;;;;6.70;3.83;;;20.70;99.90;;;;;;4993366;28;20436;-72
2023/07/08 00:49:42;;;;;;;6.53;3.60;;;20.70;99.90;;;;;;4993358;28;20484;-72
2023/07/08 00:52:21;;;;;;;6.05;3.33;;;20.80;99.90;;;;;;4977470;28;20460;-72
2023/07/08 00:54:50;;;;;;;9.57;4.60;;;20.80;99.90;;;;;;4973957;28;20452;-72
2023/07/08 00:57:16;;;;;;;7.88;4.05;;;20.80;99.90;;;;;;4974281;28;20035;-72
2023/07/08 00:59:54;;;;;;;9.40;3.67;;;20.70;99.90;;;;;;4974168;28;20023;-72
2023/07/08 01:02:23;;;;;;;7.85;3.95;;;20.70;99.90;;;;;;4981018;28;20069;-72
2023/07/08 01:04:55;;;;;;;7.50;4.13;;;20.70;99.90;;;;;;4993414;28;20031;-72
2023/07/08 01:07:24;;;;;;;6.50;4.20;;;20.70;99.90;;;;;;4990091;28;20022;-72
2023/07/08 01:10:03;;;;;;;7.90;4.13;;;20.60;99.90;;;;;;4978037;28;20492;-72
2023/07/08 01:12:35;;;;;;;6.95;4.00;;;20.60;99.90;;;;;;4977552;28;20417;-72
2023/07/08 01:15:03;;;;;;;8.95;4.68;;;20.60;99.90;;;;;;4977557;28;20035;-72
2023/07/08 01:17:32;;;;;;;6.90;4.22;;;20.50;99.90;;;;;;4977721;28;20062;-72
2023/07/08 01:20:06;;;;;;;8.32;4.13;;;20.40;99.90;;;;;;4988788;28;20045;-72
2023/07/08 01:22:34;;;;;;;;;;;20.50;99.90;;;;;;4978037;28;20027;-72
2023/07/08 01:25:03;;;;;;;9.38;3.75;;;20.40;99.90;;;;;;4988618;28;20008;-72
2023/07/08 01:27:31;;;;;;;6.50;3.95;;;20.40;99.90;;;;;;4997012;28;20149;-72
2023/07/08 01:29:58;;;;;;;6.88;3.75;;;20.50;99.90;;;;;;4997224;28;20130;-72
2023/07/08 01:32:24;;;;;;;6.80;4.00;;;20.40;99.90;;;;;;4996858;28;20023;-72
2023/07/08 01:35:00;;;;;;;8.02;3.85;;;20.30;99.90;;;;;;4996767;28;20465;-72
2023/07/08 01:37:40;;;;;;;6.38;3.90;;;20.30;99.90;;;;;;4996329;28;20034;-72
2023/07/08 01:40:24;;;;;;;6.60;3.85;;;20.30;99.90;;;;;;4996705;28;20042;-72
2023/07/08 01:42:50;;;;;;;10.13;4.20;;;20.30;99.90;;;;;;4977024;28;20038;-72
2023/07/08 01:45:18;;;;;;;7.18;4.55;;;20.30;99.90;;;;;;4977241;28;20113;-72
2023/07/08 01:47:51;;;;;;;7.15;3.92;;;20.30;99.90;;;;;;4975874;28;20393;-72
2023/07/08 01:50:19;;;;;;;10.38;4.03;;;20.20;99.90;;;;;;4977899;28;20045;-72
2023/07/08 01:52:45;;;;;;;9.90;4.05;;;20.20;99.90;;;;;;4996442;28;20038;-72
2023/07/08 01:55:11;;;;;;;6.55;3.80;;;20.10;99.90;;;;;;4991627;28;20023;-72
2023/07/08 01:57:36;;;;;;;7.32;3.95;;;20.20;99.90;;;;;;4976732;28;20039;-72
2023/07/08 02:00:02;;;;;;;6.97;3.63;;;20.10;99.90;;;;;;4977007;28;20393;-72
2023/07/08 02:02:28;;;;;;;7.72;3.88;;;20.10;99.90;;;;;;4994872;28;20496;-72
2023/07/08 02:04:54;;;;;;;6.55;3.90;;;20.10;99.90;;;;;;4996385;28;20033;-72
2023/07/08 02:07:19;;;;;;;7.07;3.80;;;20.00;99.90;;;;;;4996196;28;20473;-72
2023/07/08 02:09:45;;;;;;;9.82;3.33;;;20.00;99.90;;;;;;4995555;28;20034;-72
2023/07/08 02:12:12;;;;;;;6.18;4.00;;;19.80;99.90;;;;;;4990055;28;20062;-72
2023/07/08 02:14:37;;;;;;;8.50;3.42;;;19.80;99.90;;;;;;4976479;28;20027;-72
2023/07/08 02:17:05;;;;;;;8.23;3.85;;;19.70;99.90;;;;;;4976576;28;20516;-72
2023/07/08 02:19:31;;;;;;;7.97;3.72;;;19.80;99.90;;;;;;4976259;28;20030;-72
2023/07/08 02:21:57;;;;;;;7.43;4.13;;;19.80;99.90;;;;;;4976595;28;20122;-72
2023/07/08 02:24:23;;;;;;;6.40;3.90;;;19.90;99.90;;;;;;4976492;28;20110;-72
2023/07/08 02:26:49;;;;;;;8.48;3.95;;;20.00;99.90;;;;;;4979279;28;20037;-72
2023/07/08 02:29:15;;;;;;;7.00;3.63;;;19.80;99.90;;;;;;4995542;28;20046;-72
2023/07/08 02:31:41;;;;;;;7.28;4.05;;;19.70;99.90;;;;;;4993471;28;20030;-72
2023/07/08 02:34:06;;;;;;;7.15;4.57;;;19.60;99.90;;;;;;4976393;28;20118;-72
2023/07/08 02:36:34;;;;;;;7.70;3.85;;;19.60;99.90;;;;;;4976228;28;20026;-72
2023/07/08 02:38:59;;;;;;;6.13;3.40;;;19.60;99.90;;;;;;4975881;28;20042;-72
2023/07/08 02:41:25;;;;;;;7.82;4.50;;;19.50;99.90;;;;;;4976290;28;20035;-72
2023/07/08 02:43:51;;;;;;;7.25;3.40;;;19.40;99.90;;;;;;4979508;28;20062;-72
2023/07/08 02:46:17;;;;;;;8.10;4.47;;;19.50;99.90;;;;;;4995660;28;20014;-72
2023/07/08 02:48:42;;;;;;;10.05;3.50;;;19.50;99.90;;;;;;4995689;28;20035;-72
2023/07/08 02:51:08;;;;;;;8.55;4.57;;;19.40;99.90;;;;;;4995530;28;20022;-72
2023/07/08 02:53:34;;;;;;;9.55;4.57;;;19.40;99.90;;;;;;4994527;28;20022;-72
2023/07/08 02:56:00;;;;;;;6.97;3.65;;;19.40;99.90;;;;;;4995269;28;20113;-72
2023/07/08 02:58:26;;;;;;;6.65;3.97;;;19.40;99.90;;;;;;4994832;28;20038;-72
2023/07/08 03:00:56;;;;;;;7.60;4.43;;;19.30;99.90;;;;;;4991754;28;20061;-71
2023/07/08 03:03:22;;;;;;;6.38;3.58;;;19.30;99.90;;;;;;4992106;28;20153;-71
2023/07/08 03:06:01;;;;;;;8.75;4.10;;;19.40;99.90;;;;;;4990690;28;20509;-71
2023/07/08 03:08:27;;;;;;;7.68;4.28;;;19.40;99.90;;;;;;4989918;28;20055;-72
2023/07/08 03:10:58;;;;;;;7.25;4.28;;;19.30;99.90;;;;;;4990090;28;20038;-71
2023/07/08 03:13:25;;;;;;;10.93;4.65;;;19.30;99.90;;;;;;4977929;28;20038;-72
2023/07/08 03:15:51;;;;;;;13.13;4.75;;;19.30;99.90;;;;;;4970653;28;20023;-71
2023/07/08 03:18:17;;;;;;;11.40;3.85;;;19.30;99.90;;;;;;4976409;28;20422;-72
2023/07/08 03:20:44;;;;;;;10.63;4.78;;;19.20;99.90;;;;;;4982513;28;20058;-71
2023/07/08 03:23:13;;;;;;;10.40;4.90;;;19.20;99.90;;;;;;4987434;28;20049;-72
2023/07/08 03:25:39;;;;;;;7.07;5.13;;;19.20;99.90;;;;;;4987925;28;20611;-71
2023/07/08 03:28:06;;;;;;;12.43;4.60;;;19.20;99.90;;;;;;4987178;28;20049;-71
2023/07/08 03:30:33;;;;;;;7.65;4.05;;;19.30;99.90;;;;;;4986724;28;20026;-71
2023/07/08 03:32:59;;;;;;;7.60;4.13;;;19.40;99.90;;;;;;4987793;28;20065;-71
2023/07/08 03:35:25;;;;;;;8.00;4.18;;;19.40;99.90;;;;;;4987054;28;20042;-71
2023/07/08 03:37:51;;;;;;;9.38;3.85;;;19.30;99.90;;;;;;4983601;28;20085;-71
2023/07/08 03:40:17;;;;;;;5.97;4.03;;;19.20;99.90;;;;;;4968279;28;20041;-71
2023/07/08 03:42:42;;;;;;;7.72;4.00;;;19.20;99.90;;;;;;4968191;28;20035;-71
2023/07/08 03:45:09;;;;;;;8.05;4.57;;;19.30;99.90;;;;;;4967390;28;20030;-71
2023/07/08 03:47:34;;;;;;;8.13;4.65;;;19.30;99.90;;;;;;4967524;28;20038;-71
2023/07/08 03:50:00;;;;;;;9.30;4.90;;;19.30;99.90;;;;;;4967930;28;20039;-71
2023/07/08 03:52:26;;;;;;;8.25;4.63;;;19.20;99.90;;;;;;4975459;28;20031;-71
2023/07/08 03:54:51;;;;;;;8.48;4.30;;;19.20;99.90;;;;;;4987384;28;20045;-72
2023/07/08 03:57:17;;;;;;;10.10;4.90;;;19.20;99.90;;;;;;4985825;28;20509;-71
2023/07/08 03:59:42;;;;;;;7.90;4.85;;;19.20;99.90;;;;;;4982335;28;21000;-71
2023/07/08 04:02:11;;;;;;;7.72;4.97;;;19.30;99.90;;;;;;4986716;28;20088;-71
2023/07/08 04:04:37;;;;;;;7.35;4.15;;;19.30;99.90;;;;;;4987053;28;20112;-71
2023/07/08 04:07:06;;;;;;;7.28;3.85;;;19.30;99.90;;;;;;4986593;28;20037;-72
2023/07/08 04:09:32;;;;;;;7.55;4.65;;;19.20;99.90;;;;;;4986049;28;20031;-72
2023/07/08 04:11:59;;;;;;;6.75;4.55;;;19.20;99.90;;;;;;4987051;28;21081;-71
2023/07/08 04:14:25;;;;;;;9.98;4.22;;;19.20;99.90;;;;;;4971721;28;20027;-71
2023/07/08 04:16:57;;;;;;;6.57;3.92;;;19.30;99.90;;;;;;4967184;28;20026;-71
2023/07/08 04:19:23;;;;;;;9.07;4.75;;;19.30;99.90;;;;;;4967289;28;20066;-71
2023/07/08 04:21:49;;;;;;;8.80;4.32;;;19.30;99.90;;;;;;4968105;28;20069;-72
2023/07/08 04:24:17;;;;;;;7.82;4.47;;;19.30;99.90;;;;;;4985700;28;20464;-71
2023/07/08 04:26:46;;;;;;;7.50;4.47;;;19.30;99.90;;;;;;4985975;28;20030;-71
2023/07/08 04:29:13;;;;;;;9.95;4.07;;;19.30;99.90;;;;;;4986307;28;20066;-71
2023/07/08 04:31:39;;;;;;;8.90;3.80;;;19.30;99.90;;;;;;4986062;28;20031;-71
2023/07/08 04:34:06;;;;;;;7.28;4.07;;;19.30;99.90;;;;;;4986183;28;20035;-72
2023/07/08 04:36:32;;;;;;;8.48;3.85;;;19.30;99.90;;;;;;4984912;28;20177;-71
2023/07/08 04:38:59;;;;;;;28.67;5.35;;;19.50;99.90;;;;;;4967163;28;20035;-71
2023/07/08 04:41:25;;;;;;;12.10;5.20;;;19.50;99.90;;;;;;4966661;28;20029;-71
2023/07/08 04:43:53;;;;;;;10.98;4.45;;;19.40;99.90;;;;;;4977887;28;20102;-71
2023/07/08 04:46:34;;;;;;;9.00;4.30;;;19.40;99.90;;;;;;4985810;28;20034;-71
2023/07/08 04:49:02;;;;;;;8.27;4.00;;;19.50;99.90;;;;;;4986392;28;20022;-71
2023/07/08 04:51:27;;;;;;;9.00;4.53;;;19.50;99.90;;;;;;4986145;28;20138;-71
2023/07/08 04:53:53;;;;;;;7.63;4.60;;;19.60;99.90;;;;;;4982659;28;21592;-72
2023/07/08 04:56:18;;;;;;;8.80;4.63;;;19.60;99.90;;;;;;4966611;28;20034;-72
2023/07/08 04:58:44;;;;;;;12.25;4.55;;;19.50;99.90;;;;;;4967032;28;20525;-72
2023/07/08 05:01:10;;;;;;;9.68;5.05;;;19.50;99.90;;;;;;4980295;28;20034;-72
2023/07/08 05:03:36;;;;;;;9.15;4.35;;;19.50;99.90;;;;;;4986036;28;20031;-72
2023/07/08 05:06:02;;;;;;;15.95;4.60;;;19.60;99.90;;;;;;4986009;28;20472;-72
2023/07/08 05:08:27;;;;;;;8.25;4.32;;;19.60;99.90;;;;;;4983268;28;20054;-72
2023/07/08 05:10:53;;;;;;;8.35;3.90;;;19.60;99.90;;;;;;4966228;28;20031;-72
2023/07/08 05:13:19;;;;;;;9.63;4.82;;;19.60;99.90;;;;;;4966392;28;20031;-73
2023/07/08 05:15:44;;;;;;;7.22;4.10;;;19.80;99.90;;;;;;4966517;28;20058;-72
2023/07/08 05:18:10;;;;;;;7.53;4.28;;;19.90;99.90;;;;;;4980367;28;20082;-72
2023/07/08 05:20:36;;;;;;;8.63;4.20;;;19.70;99.90;;;;;;4986203;28;20061;-72
2023/07/08 05:23:02;;;;;;;7.50;4.35;;;19.50;99.90;;;;;;4985928;28;20022;-72
2023/07/08 05:25:32;;;;;;;7.47;3.83;;;19.50;99.90;;;;;;4985595;28;20078;-72
2023/07/08 05:27:57;;;;;;;9.60;4.35;;;19.40;99.90;;;;;;4971997;28;20115;-72
2023/07/08 05:30:23;;;;;;;7.22;4.55;;;19.50;99.90;;;;;;4966372;28;20069;-72
2023/07/08 05:32:49;;;;;;;9.30;4.40;;;19.50;99.90;;;;;;4966639;28;20042;-72
2023/07/08 05:35:15;;;;;;;7.13;4.05;;;19.60;99.90;;;;;;4980763;28;20030;-72
2023/07/08 05:37:41;;;;;;;7.50;4.00;;;19.60;99.90;;;;;;4985760;28;20041;-72
2023/07/08 05:40:08;;;;;;;8.65;3.90;;;19.60;99.90;;;;;;4985909;28;20081;-72
2023/07/08 05:42:33;;;;;;;7.45;4.25;;;19.60;99.90;;;;;;4985552;28;20019;-72
2023/07/08 05:44:59;;;;;;;11.90;4.70;;;19.70;99.90;;;;;;4985336;28;20037;-72
2023/07/08 05:47:26;;;;;;;8.95;4.00;;;19.70;99.90;;;;;;4985715;28;20030;-72
2023/07/08 05:49:52;;;;;;;7.05;4.50;;;19.70;99.90;;;;;;4985497;28;20034;-72
2023/07/08 05:52:17;;;;;;;9.50;4.85;;;19.80;99.90;;;;;;4985418;28;20037;-72
2023/07/08 05:54:43;;;;;;;9.40;5.18;;;19.90;99.90;;;;;;4989229;28;20429;-72
2023/07/08 05:57:11;;;;;;;7.57;4.15;;;20.00;99.90;;;;;;4989781;28;20031;-72
2023/07/08 05:59:38;;;;;;;9.05;4.28;;;20.00;99.90;;;;;;4978292;28;20902;-72
2023/07/08 06:02:05;;;;;;;6.22;3.92;;;19.90;99.90;;;;;;4969701;28;20030;-72
2023/07/08 06:04:31;;;;;;;6.60;4.25;;;20.00;99.90;;;;;;4969659;28;20034;-72
2023/07/08 06:06:57;;;;;;;8.23;4.28;;;20.10;99.90;;;;;;4969587;28;20042;-72
2023/07/08 06:09:23;;;;;;;9.23;4.18;;;20.20;99.90;;;;;;4984982;28;20025;-72
2023/07/08 06:11:49;;;;;;;9.52;4.90;;;20.20;99.90;;;;;;4987775;28;20018;-72
2023/07/08 06:14:14;;;;;;;9.63;4.85;;;20.40;99.90;;;;;;4988072;28;20026;-72
2023/07/08 06:16:40;;;;;;;8.02;4.15;;;20.50;99.90;;;;;;4987744;28;20376;-72
2023/07/08 06:19:06;;;;;;;6.70;4.40;;;20.50;99.90;;;;;;4970107;28;20041;-72
2023/07/08 06:21:31;;;;;;;7.43;4.72;;;20.60;99.90;;;;;;4969584;28;20556;-72
2023/07/08 06:23:57;;;;;;;9.32;5.13;;;20.70;99.90;;;;;;4969014;28;20030;-72
2023/07/08 06:26:23;;;;;;;7.28;4.57;;;20.80;99.90;;;;;;4984187;28;20098;-72
2023/07/08 06:28:49;;;;;;;11.48;4.43;;;20.90;99.90;;;;;;4987921;28;20516;-72
2023/07/08 06:31:15;;;;;;;10.90;5.30;;;21.00;99.90;;;;;;4988539;28;20039;-72
2023/07/08 06:33:42;;;;;;;12.13;4.63;;;21.10;99.90;;;;;;4987790;28;20032;-72
2023/07/08 06:36:07;;;;;;;6.65;4.47;;;21.40;99.90;;;;;;4988177;28;20092;-72
2023/07/08 06:38:33;;;;;;;8.95;4.63;;;21.50;99.90;;;;;;4987904;28;20046;-72
2023/07/08 06:40:59;;;;;;;7.82;4.50;;;21.60;99.90;;;;;;4988554;28;20432;-72
2023/07/08 06:43:25;;;;;;;7.72;4.28;;;21.80;99.90;;;;;;4987414;28;20118;-73
2023/07/08 06:45:51;;;;;;;10.80;4.72;;;22.00;99.90;;;;;;4987952;28;20037;-73
2023/07/08 06:48:17;;;;;;;9.65;4.95;;;22.10;99.90;;;;;;4983893;28;20034;-72
2023/07/08 06:50:45;;;;;;;7.78;4.15;;;22.20;99.90;;;;;;4969005;28;20035;-72
2023/07/08 06:53:11;;;;;;;5.55;3.78;;;22.20;99.90;;;;;;4968683;28;20675;-72
2023/07/08 06:55:37;;;;;;;9.65;4.55;;;22.30;99.90;;;;;;4968960;28;20035;-72
2023/07/08 06:58:02;;;;;;;10.15;4.82;;;22.40;99.90;;;;;;4968705;28;20063;-72
2023/07/08 07:00:28;;;;;;;6.18;4.18;;;22.60;99.90;;;;;;4984884;28;20030;-72
2023/07/08 07:02:54;;;;;;;7.60;4.13;;;22.90;99.90;;;;;;4988434;28;20042;-72
2023/07/08 07:05:19;;;;;;;7.85;4.43;;;23.00;99.90;;;;;;4988409;28;20027;-72
2023/07/08 07:07:45;;;;;;;10.07;4.47;;;23.00;99.90;;;;;;4990780;28;20050;-72
2023/07/08 07:10:11;;;;;;;7.80;4.47;;;22.90;99.90;;;;;;4991224;28;20093;-72
2023/07/08 07:12:36;;;;;;;10.50;5.28;;;22.70;99.90;;;;;;4991049;28;20034;-72
2023/07/08 07:15:03;;;;;;;11.25;4.00;;;22.80;99.90;;;;;;4991003;28;20026;-72
2023/07/08 07:17:29;;;;;;;6.63;4.22;;;22.70;99.90;;;;;;4990353;28;20058;-72
2023/07/08 07:19:55;;;;;;;7.35;4.22;;;22.70;99.90;;;;;;4990874;28;20069;-72
2023/07/08 07:22:21;;;;;;;8.25;4.47;;;22.70;99.90;;;;;;4977477;28;20031;-72
2023/07/08 07:24:46;;;;;;;6.78;4.13;;;22.60;99.90;;;;;;4971289;28;20046;-73
2023/07/08 07:27:12;;;;;;;8.95;4.30;;;22.60;99.90;;;;;;4971031;28;20031;-72
2023/07/08 07:29:44;;;;;;;8.55;4.85;;;22.70;99.90;;;;;;4971156;28;20069;-72
2023/07/08 07:32:12;;;;;;;8.93;5.18;;;22.60;99.90;;;;;;4970828;28;20089;-72
2023/07/08 07:34:38;;;;;;;9.40;4.55;;;22.70;99.90;;;;;;4988514;28;20061;-72
2023/07/08 07:37:14;;;;;;;6.75;4.18;;;22.60;99.90;;;;;;4990211;28;20134;-72
2023/07/08 07:39:41;;;;;;;13.32;5.72;;;22.60;99.90;;;;;;4990216;28;20080;-72
2023/07/08 07:42:07;;;;;;;8.98;4.15;;;22.70;99.90;;;;;;4990491;28;20031;-72
2023/07/08 07:44:33;;;;;;;8.63;4.30;;;22.70;99.90;;;;;;4990599;28;20029;-72
2023/07/08 07:46:58;;;;;;;10.25;5.20;;;22.90;99.90;;;;;;4978777;28;20035;-72
2023/07/08 07:49:24;;;;;;;8.70;5.00;;;22.80;99.90;;;;;;4970450;28;20031;-73
2023/07/08 07:51:50;;;;;;;8.73;4.65;;;23.00;99.90;;;;;;4989821;28;20058;-73
2023/07/08 07:54:16;;;;;;;14.25;4.65;;;23.20;99.90;;;;;;4990038;28;20465;-72
2023/07/08 07:56:42;;;;;;;11.02;5.13;;;23.30;99.90;;;;;;4990108;28;20085;-73
2023/07/08 07:59:07;;;;;;;10.15;4.85;;;23.30;99.90;;;;;;4989907;28;20630;-73
2023/07/08 08:01:33;;;;;;;8.10;4.20;;;23.40;99.90;;;;;;4989549;28;20076;-72
2023/07/08 08:03:59;;;;;;;12.60;5.32;;;23.50;99.90;;;;;;4989526;28;20027;-72
2023/07/08 08:06:24;;;;;;;9.63;4.93;;;23.60;99.90;;;;;;4989747;28;20513;-73
2023/07/08 08:08:51;;;;;;;10.40;4.60;;;23.90;99.90;;;;;;4989576;28;20484;-72
2023/07/08 08:11:16;;;;;;;9.00;4.38;;;23.90;99.90;;;;;;4980621;28;20057;-73
2023/07/08 08:13:42;;;;;;;7.43;4.53;;;23.90;99.90;;;;;;4970054;28;20097;-73
2023/07/08 08:16:08;;;;;;;8.75;4.97;;;23.90;99.90;;;;;;4969760;28;20054;-73
2023/07/08 08:18:34;;;;;;;8.32;5.28;;;24.00;99.90;;;;;;4970256;28;20042;-72
2023/07/08 08:21:00;;;;;;;9.50;4.57;;;24.10;99.90;;;;;;4970247;28;20031;-72
2023/07/08 08:23:26;;;;;;;8.27;5.03;;;24.30;99.90;;;;;;4970451;28;20022;-73
2023/07/08 08:25:52;;;;;;;13.23;4.63;;;24.30;99.90;;;;;;4989145;28;20372;-73
2023/07/08 08:28:17;;;;;;;9.00;4.70;;;24.60;99.90;;;;;;4989113;28;20042;-72
2023/07/08 08:30:48;;;;;;;7.03;4.63;;;24.70;99.90;;;;;;4989630;28;20130;-73
2023/07/08 08:33:14;;;;;;;7.30;4.78;;;24.70;99.90;;;;;;4989066;28;20029;-72
2023/07/08 08:35:39;;;;;;;6.63;4.28;;;24.70;99.90;;;;;;4988368;28;20034;-73
2023/07/08 08:38:05;;;;;;;9.25;4.40;;;24.60;99.90;;;;;;4989318;28;20689;-72
2023/07/08 08:40:31;;;;;;;13.98;5.28;;;24.80;99.90;;;;;;4987784;28;20392;-73
2023/07/08 08:43:12;;;;;;;9.02;4.65;;;24.90;99.90;;;;;;4969912;28;20523;-73
2023/07/08 08:46:05;;;;;;;7.28;4.18;;;25.00;99.90;;;;;;4969590;28;20774;-73
2023/07/08 08:48:37;;;;;;;8.45;4.70;;;24.90;99.90;;;;;;4970116;28;20102;-72
2023/07/08 08:51:12;;;;;;;7.38;5.13;;;25.00;99.90;;;;;;4988674;28;20046;-73
2023/07/08 08:53:37;;;;;;;9.85;4.60;;;25.10;99.90;;;;;;4989489;28;20393;-72
2023/07/08 08:56:20;;;;;;;10.95;5.72;;;25.80;99.90;;;;;;4989051;28;20030;-73
2023/07/08 08:59:15;;;;;;;6.70;4.07;;;26.40;99.90;;;;;;4982333;28;20065;-73
2023/07/08 09:01:41;;;;;;;7.85;4.32;;;26.40;99.20;;;;;;4988858;28;20109;-73
2023/07/08 09:04:23;;;;;;;13.55;5.18;;;26.50;99.90;;;;;;4988945;28;20120;-73
2023/07/08 09:06:50;;;;;;;9.70;4.53;;;26.70;99.10;;;;;;4988932;28;20031;-73
2023/07/08 09:09:27;;;;;;;7.07;4.53;;;26.70;98.30;;;;;;4989096;28;20022;-73
2023/07/08 09:12:08;;;;;;;6.97;4.13;;;27.00;98.80;;;;;;4989154;28;20717;-73
2023/07/08 09:14:36;;;;;;;8.70;5.38;;;26.90;98.60;;;;;;4988149;28;20078;-73
2023/07/08 09:17:23;;;;;;;9.05;4.60;;;26.90;98.20;;;;;;4988821;28;20034;-73
2023/07/08 09:20:33;;;;;;;6.15;4.07;;;26.40;98.90;;;;;;4970927;28;20166;-73
2023/07/08 09:23:09;;;;;;;7.38;4.07;;;26.50;99.60;;;;;;4969228;28;20043;-73
2023/07/08 09:25:41;;;;;;;8.63;4.40;;;26.90;99.90;;;;;;4969719;28;20128;-73
2023/07/08 09:28:08;;;;;;;9.18;4.82;;;26.80;98.20;;;;;;4970957;28;20050;-73
2023/07/08 09:30:33;;;;;;;7.53;4.10;;;26.90;98.70;;;;;;4981196;28;20085;-73
2023/07/08 09:33:04;;;;;;;6.65;4.30;;;26.80;98.70;;;;;;4992307;28;20114;-73
2023/07/08 09:35:41;;;;;;;8.40;5.15;;;27.20;99.20;;;;;;4992655;28;20077;-73
2023/07/08 09:38:09;;;;;;;7.75;4.30;;;27.20;99.10;;;;;;4992376;28;20041;-73
2023/07/08 09:40:35;;;;;;;7.60;3.97;;;27.30;97.00;;;;;;4992490;28;20128;-73
2023/07/08 09:43:14;;;;;;;9.82;4.93;;;26.80;97.70;;;;;;4992521;28;20497;-73
2023/07/08 09:45:45;;;;;;;6.68;4.15;;;26.70;98.20;;;;;;4992128;28;20034;-73
2023/07/08 09:48:25;;;;;;;7.43;4.15;;;26.90;99.00;;;;;;4992029;28;20030;-73
2023/07/08 09:50:53;;;;;;;7.93;4.72;;;27.30;99.20;;;;;;4992172;28;20572;-73
2023/07/08 09:53:19;;;;;;;8.10;4.60;;;27.60;98.50;;;;;;4992410;28;20408;-73
2023/07/08 09:55:46;;;;;;;6.53;4.22;;;27.40;98.10;;;;;;4992029;28;20481;-73
2023/07/08 09:58:18;;;;;;;6.65;4.00;;;27.60;97.70;;;;;;4991956;28;20077;-73
2023/07/08 10:00:52;;;;;;;7.23;4.13;;;26.60;97.60;;;;;;4992496;28;20112;-73
2023/07/08 10:03:22;;;;;;;6.88;4.00;;;26.60;98.40;;;;;;4992200;28;20109;-73
2023/07/08 10:05:49;;;;;;;8.93;4.47;;;26.80;98.00;;;;;;4991855;28;20412;-73
2023/07/08 10:08:21;;;;;;;8.35;4.32;;;27.30;99.50;;;;;;4986499;28;20116;-73
2023/07/08 10:11:11;;;;;;;10.25;4.22;;;27.60;99.00;;;;;;4972431;28;20488;-73
2023/07/08 10:13:43;;;;;;;18.10;5.25;;;27.30;98.60;;;;;;4971741;28;20042;-73
2023/07/08 10:16:14;;;;;;;16.17;4.43;;;26.90;99.30;;;;;;4972582;28;20034;-73
2023/07/08 10:18:41;;;;;;;8.70;4.65;;;27.70;98.70;;;;;;4979644;28;20088;-73
2023/07/08 10:21:26;;;;;;;7.22;4.47;;;27.90;98.00;;;;;;4991699;28;20030;-73
2023/07/08 10:24:02;;;;;;;10.30;4.75;;;27.50;98.10;;;;;;4991216;28;20022;-73
2023/07/08 10:26:30;;;;;;;7.75;4.03;;;27.50;97.30;;;;;;4987697;28;20113;-73
2023/07/08 10:29:02;;;;;;;7.50;4.30;;;27.70;97.50;;;;;;4972327;28;20382;-73
2023/07/08 10:31:33;;;;;;;9.65;4.30;;;27.90;97.10;;;;;;4972458;28;20141;-73
2023/07/08 10:34:03;;;;;;;7.72;4.25;;;28.10;95.90;;;;;;4991377;28;20365;-73
2023/07/08 10:37:06;;;;;;;7.32;3.90;;;28.50;97.10;;;;;;4991682;28;20377;-73
2023/07/08 10:39:54;;;;;;;8.83;4.50;;;28.40;95.90;;;;;;4991031;28;20137;-73
2023/07/08 10:42:27;;;;;;;5.88;3.47;;;28.80;95.30;;;;;;4991365;28;20030;-73
2023/07/08 10:45:13;;;;;;;7.13;3.63;;;28.70;92.70;;;;;;4991457;28;20041;-73
2023/07/08 10:47:58;;;;;;;6.60;4.57;;;28.70;92.70;;;;;;4975742;28;20523;-73
2023/07/08 10:50:44;;;;;;;6.28;3.90;;;28.90;92.20;;;;;;4987074;28;20034;-73
2023/07/08 10:53:36;;;;;;;8.00;4.65;;;29.10;93.10;;;;;;4991099;28;20046;-73
2023/07/08 10:56:14;;;;;;;7.72;4.40;;;28.90;91.80;;;;;;4990394;28;20035;-73
2023/07/08 10:58:58;;;;;;;6.70;3.78;;;28.90;91.60;;;;;;4990838;28;20456;-73
2023/07/08 11:01:39;;;;;;;8.30;4.28;;;28.90;92.50;;;;;;4990575;28;20049;-72
2023/07/08 11:04:21;;;;;;;7.60;4.13;;;29.00;91.70;;;;;;4991323;28;20140;-72
2023/07/08 11:07:00;;;;;;;8.98;4.68;;;29.00;93.00;;;;;;4991156;28;20030;-72
2023/07/08 11:09:35;;;;;;;9.13;3.85;;;29.40;91.90;;;;;;4991213;28;20106;-72
2023/07/08 11:12:08;;;;;;;6.25;3.95;;;29.40;91.80;;;;;;4990942;28;20030;-72
2023/07/08 11:14:46;;;;;;;7.85;5.07;;;29.50;91.10;;;;;;4989071;28;20041;-72
2023/07/08 11:17:32;;;;;;;8.32;4.40;;;29.50;91.50;;;;;;4989727;28;20065;-72
2023/07/08 11:20:21;;;;;;;6.88;4.25;;;29.50;91.60;;;;;;4990528;28;20038;-73
2023/07/08 11:23:21;;;;;;;7.70;4.43;;;29.60;92.00;;;;;;4990607;28;20038;-72
2023/07/08 11:25:50;;;;;;;6.88;4.38;;;29.50;91.10;;;;;;4988218;28;20042;-72
2023/07/08 11:28:19;;;;;;;6.60;4.20;;;29.40;91.80;;;;;;4983188;28;20074;-72
2023/07/08 11:30:49;;;;;;;6.28;3.67;;;29.20;91.70;;;;;;4974061;28;20044;-72
2023/07/08 11:33:19;;;;;;;6.25;3.45;;;29.20;91.90;;;;;;4990563;28;20027;-72
2023/07/08 11:35:55;;;;;;;8.68;3.97;;;29.50;92.70;;;;;;4990220;28;20093;-72
2023/07/08 11:38:21;;;;;;;8.48;4.00;;;29.30;91.50;;;;;;4990673;28;20026;-72
2023/07/08 11:41:02;;;;;;;7.07;3.97;;;29.30;91.40;;;;;;4990320;28;20038;-72
2023/07/08 11:43:36;;;;;;;9.52;4.40;;;29.40;91.70;;;;;;4990456;28;20054;-72
2023/07/08 11:46:06;;;;;;;7.75;4.25;;;29.50;92.20;;;;;;4971965;28;20042;-72
2023/07/08 11:48:42;;;;;;;8.13;4.30;;;29.50;91.60;;;;;;4983356;28;20530;-71
2023/07/08 11:51:09;;;;;;;6.57;4.18;;;29.60;91.20;;;;;;4975078;28;20062;-72
2023/07/08 11:53:38;;;;;;;8.70;3.85;;;29.40;91.20;;;;;;4990165;28;20037;-72
2023/07/08 11:56:20;;;;;;;7.88;4.43;;;29.10;91.20;;;;;;4990265;28;20085;-72
2023/07/08 11:58:49;;;;;;;7.22;4.38;;;29.40;92.10;;;;;;4990029;28;20038;-71
2023/07/08 12:01:30;;;;;;;9.70;4.78;;;29.60;91.80;;;;;;4982257;28;20034;-72
2023/07/08 12:04:01;;;;;;;8.77;4.43;;;29.30;91.00;;;;;;4970499;28;20560;-72
2023/07/08 12:06:27;;;;;;;6.78;3.50;;;29.20;91.50;;;;;;4986609;28;20038;-72
2023/07/08 12:08:58;;;;;;;5.78;3.67;;;29.30;91.70;;;;;;4990446;28;20522;-72
2023/07/08 12:11:28;;;;;;;6.90;4.30;;;29.30;90.70;;;;;;4990172;28;20057;-72
2023/07/08 12:13:58;;;;;;;10.10;4.10;;;29.50;91.20;;;;;;4989900;28;20038;-72
2023/07/08 12:16:25;;;;;;;7.93;3.72;;;29.50;90.70;;;;;;4990106;28;20077;-72
2023/07/08 12:18:52;;;;;;;18.50;5.18;;;29.20;90.40;;;;;;4972295;28;20030;-73
2023/07/08 12:21:18;;;;;;;9.23;4.07;;;29.00;90.70;;;;;;4970258;28;20377;-72
2023/07/08 12:23:46;;;;;;;5.97;3.45;;;28.70;91.20;;;;;;4989125;28;20037;-72
2023/07/08 12:26:11;;;;;;;7.53;4.25;;;28.60;91.30;;;;;;4989469;28;20065;-72
2023/07/08 12:28:38;;;;;;;6.97;3.65;;;28.60;91.80;;;;;;4989184;28;20146;-71
2023/07/08 12:31:15;;;;;;;6.25;3.63;;;28.50;91.30;;;;;;4989870;28;20093;-72
2023/07/08 12:33:41;;;;;;;8.40;4.10;;;28.60;92.00;;;;;;4988835;28;20026;-72
2023/07/08 12:36:11;;;;;;;7.22;4.03;;;28.60;91.40;;;;;;4989288;28;20529;-72
2023/07/08 12:38:43;;;;;;;9.52;4.00;;;28.90;91.20;;;;;;4988836;28;20465;-72
2023/07/08 12:41:16;;;;;;;6.80;3.92;;;29.20;91.30;;;;;;4989110;28;20109;-72
2023/07/08 12:43:42;;;;;;;7.05;4.00;;;28.90;91.40;;;;;;4974536;28;20066;-71
2023/07/08 12:46:10;;;;;;;7.20;3.63;;;28.80;91.20;;;;;;4970134;28;20042;-71
2023/07/08 12:48:39;;;;;;;7.47;3.95;;;28.70;91.30;;;;;;4970222;28;20433;-72
2023/07/08 12:51:10;;;;;;;6.90;3.63;;;28.70;92.40;;;;;;4970080;28;20031;-72
2023/07/08 12:53:36;;;;;;;7.95;4.30;;;28.70;92.60;;;;;;4969597;28;20026;-72
2023/07/08 12:56:03;;;;;;;7.07;4.00;;;28.50;93.20;;;;;;4975199;28;20629;-73